Disclaimer

Please do not use the information listed here in-flight or in-navigation, as they are not provided to us by the airports but are provided by volunteers, so they might be outdated.

Search


Regions


Airport information page

Radio informations:
Tower (TWR) - 118.3 MHz
Approach (APP) - 118.05 MHz

Airport informations:
Latitude: 52° 27' 13.88" N
Longitude: 001° 44' 52.90" W
Elevation: 327 feet - 100 meters
Operating hours: 24 hour operations
Operating agency: Civil government, landing fees and diplomatic clearance may be required
Timezone: UTC 0(+1DT) - Last Sunday in March to last Sunday in October
Fuel: Jet A, without icing inhibitor.

100/130 MIL Spec, low lead, aviation gasoline (BLUE)

Runway information:
06/24 - 4314 x 98 feet< - >1315 x 30 meters
15/33 - 8546 x 151 feet< - >2605 x 46 meters

Recent METARs:
EGBB 170850Z 32013KT CAVOK 01/M04 Q1011
EGBB 170920Z 32012KT CAVOK 01/M03 Q1011
EGBB 170950Z 32011KT CAVOK 02/M04 Q1012

Airport on the map: